Sunday, July 22, 2018, 12:36 AM EDT
Back to Local

KHVN, Tweed-new Haven Airport

Location: East Haven, CT, United States Lat: 41.267
Local Time: 12:36 AM EDT ( 4:36 GMT) Lon: -72.883
Time Zone: US/Eastern Elev: 13 ft

Show me the last for .
Show Decoded

2018-07-22 00:24 METAR KHVN 220424Z AUTO 07011KT 10SM OVC009 19/18 A2997 RMK AO2 RAB0355E04 P0000
                 T01940178 =
2018-07-21 23:53 METAR KHVN 220353Z AUTO 07009KT 9SM OVC011 19/18 A2999 RMK AO2 RAE48 SLP154
                 P0008 T01890178 =
2018-07-21 23:42 METAR KHVN 220342Z AUTO 06009KT 6SM -RA BR OVC013 19/18 A3000 RMK AO2 P0008
                 T01890178 =
2018-07-21 22:53 METAR KHVN 220253Z AUTO 09011KT 10SM -RA BKN020 BKN050 OVC065 20/15 A3001 RMK
                 AO2 RAB41 SLP163 P0000 60000 T02000150 56008 =
2018-07-21 22:51 METAR KHVN 220251Z AUTO 09011KT 10SM -RA BKN022 BKN050 OVC065 20/15 A3001 RMK
                 AO2 RAB41 P0000 =
2018-07-21 22:36 METAR KHVN 220236Z AUTO 08011G17KT 10SM SCT022 BKN030 OVC065 21/13 A3001 RMK AO2
                 T02110133 =
2018-07-21 21:53 METAR KHVN 220153Z 07013KT 10SM OVC027 21/14 A3002 RMK AO2 SLP166 T02110139 =
2018-07-21 21:13 METAR KHVN 220113Z 08013G18KT 10SM BKN029 BKN034 OVC055 21/14 A3003 RMK AO2
                 T02110139 =
2018-07-21 20:53 METAR KHVN 220053Z 09013G19KT 10SM OVC034 21/15 A3004 RMK AO2 SLP171 T02110150 =
2018-07-21 19:53 METAR KHVN 212353Z 10013G19KT 10SM SCT042 BKN060 21/16 A3004 RMK AO2 SLP173
                 T02110156 10239 20211 56011 =
2018-07-21 18:53 METAR KHVN 212253Z 10011G20KT 10SM BKN055 21/17 A3006 RMK AO2 SLP178 T02110167 =
2018-07-21 17:53 METAR KHVN 212153Z 10009G19KT 10SM CLR 21/17 A3006 RMK AO2 SLP178 T02110167 =
2018-07-21 16:53 METAR KHVN 212053Z 11015G19KT 10SM CLR 22/17 A3008 RMK AO2 SLP184 T02170167
                 56010 =
2018-07-21 15:53 METAR KHVN 211953Z 11014G21KT 10SM SCT030 BKN130 OVC250 22/17 A3008 RMK AO2
                 SLP184 T02220172 =
2018-07-21 14:53 METAR KHVN 211853Z 12013G20KT 10SM FEW030 SCT150 BKN250 22/17 A3010 RMK AO2
                 SLP192 T02220172 =
2018-07-21 13:53 METAR KHVN 211753Z 11014G20KT 10SM FEW035 BKN250 23/16 A3011 RMK AO2 SLP195
                 T02330161 10239 20206 56014 =
2018-07-21 12:53 METAR KHVN 211653Z 10016G22KT 10SM FEW035 SCT250 24/16 A3012 RMK AO2 SLP197
                 T02390161 =
2018-07-21 11:53 METAR KHVN 211553Z 10011KT 10SM CLR 23/15 A3013 RMK AO2 SLP204 T02330150 =
2018-07-21 10:53 METAR KHVN 211453Z 11011KT 10SM CLR 23/14 A3015 RMK AO2 SLP209 T02330144 53008 =
2018-07-21 09:53 METAR KHVN 211353Z 09011KT 10SM CLR 23/14 A3013 RMK AO2 SLP203 T02280139 =
2018-07-21 08:53 METAR KHVN 211253Z 10009KT 10SM CLR 22/14 A3013 RMK AO2 SLP203 T02220144 =
2018-07-21 07:53 METAR KHVN 211153Z 09005KT 10SM CLR 21/16 A3013 RMK AO2 SLP201 T02060156 10211
                 20167 55000 =
2018-07-21 06:53 METAR KHVN 211053Z 08005KT 10SM CLR 19/16 A3012 RMK AO2 SLP199 T01890161 =
2018-07-21 05:53 METAR KHVN 210953Z 05004KT 10SM CLR 17/16 A3012 RMK AO2 SLP200 T01720161 =
2018-07-21 04:53 METAR KHVN 210853Z AUTO 04004KT 10SM CLR 17/16 A3013 RMK AO2 SLP201 T01720156
                 53000 =
2018-07-21 03:53 METAR KHVN 210753Z AUTO 03003KT 10SM CLR 17/16 A3012 RMK AO2 SLP199 T01670161 =
2018-07-21 02:53 METAR KHVN 210653Z AUTO 01003KT 10SM CLR 18/16 A3012 RMK AO2 SLP200 T01780161 =
2018-07-21 01:53 METAR KHVN 210553Z AUTO 16004KT 10SM CLR 21/17 A3013 RMK AO2 SLP201 T02060167
                 10233 20206 58006 =
2018-07-21 00:53 METAR KHVN 210453Z AUTO 15005KT 10SM CLR 21/17 A3013 RMK AO2 SLP203 T02110167
                 402780161 =

Support USWX by starting your Amazon purchase here.